KMCJ

Houston

Houston, Texas, USA
METAR KMCJ 260315Z AUTO VRB06KT 10SM BKN020 OVC028 16/15 A3001 RMK A01
Observed Flight Rules
Feb-26 @ 03:15 UTC (20 minutes ago) Marginal Visual Flight Rules
Wind Visibility Clouds
Variable at 6 knots 10 miles
  • Broken at 2,000' AGL
  • Overcast at 2,800' AGL
Temperatures Readings
Current 16°C / 61°F
Dewpoint 15°C / 59°F
Humidity 94%
Altimeter 30.01" Hg
Pressure 1016 hPa
Elevation 69
METAR KMCJ 260315Z AUTO VRB06KT 10SM BKN020 OVC028 16/15 A3001 RMK A01
Observed Flight Rules
Feb-26 @ 03:15 UTC
(20 minutes ago)
MVFR
Wind Visibility
Variable at 6 knots 10 miles
Clouds
  • Broken at 2,000' AGL
  • Overcast at 2,800' AGL
Temperature Dewpoint
16°C / 61°F 15°C / 59°F
Humidity Altimeter Pressure
94% 30.01" Hg 1016 hPa